sensor_id;sensor_type;location;lat;lon;timestamp;pressure;altitude;pressure_sealevel;temperature;humidity
84785;BME280;75017;41.576;24.704;2024-03-08T00:00:15;90758.63;;;4.12;78.79
84785;BME280;75017;41.576;24.704;2024-03-08T00:02:44;90756.19;;;4.07;79.64
84785;BME280;75017;41.576;24.704;2024-03-08T00:05:10;90749.69;;;4.09;79.06
84785;BME280;75017;41.576;24.704;2024-03-08T00:07:37;90745.00;;;4.03;79.92
84785;BME280;75017;41.576;24.704;2024-03-08T00:10:07;90744.94;;;3.86;79.78
84785;BME280;75017;41.576;24.704;2024-03-08T00:12:40;90747.66;;;3.81;80.09
84785;BME280;75017;41.576;24.704;2024-03-08T00:15:15;90740.91;;;3.54;81.17
84785;BME280;75017;41.576;24.704;2024-03-08T00:17:42;90745.31;;;3.62;80.64
84785;BME280;75017;41.576;24.704;2024-03-08T00:20:07;90744.91;;;3.69;81.41
84785;BME280;75017;41.576;24.704;2024-03-08T00:22:39;90741.84;;;3.66;80.46
84785;BME280;75017;41.576;24.704;2024-03-08T00:25:05;90737.66;;;3.71;80.64
84785;BME280;75017;41.576;24.704;2024-03-08T00:27:34;90746.25;;;3.66;80.14
84785;BME280;75017;41.576;24.704;2024-03-08T00:29:59;90743.38;;;3.67;79.29
84785;BME280;75017;41.576;24.704;2024-03-08T00:32:25;90748.97;;;3.70;79.61
84785;BME280;75017;41.576;24.704;2024-03-08T00:34:53;90752.47;;;3.74;80.14
84785;BME280;75017;41.576;24.704;2024-03-08T00:37:20;90753.22;;;3.74;80.03
84785;BME280;75017;41.576;24.704;2024-03-08T00:39:50;90755.94;;;3.78;80.46
84785;BME280;75017;41.576;24.704;2024-03-08T00:42:17;90756.88;;;3.82;79.42
84785;BME280;75017;41.576;24.704;2024-03-08T00:44:43;90754.31;;;3.82;79.77
84785;BME280;75017;41.576;24.704;2024-03-08T00:47:08;90749.34;;;3.85;79.59
84785;BME280;75017;41.576;24.704;2024-03-08T00:49:34;90751.91;;;3.94;79.34
84785;BME280;75017;41.576;24.704;2024-03-08T00:52:00;90749.34;;;3.85;80.10
84785;BME280;75017;41.576;24.704;2024-03-08T00:54:25;90751.44;;;3.83;79.85
84785;BME280;75017;41.576;24.704;2024-03-08T00:56:51;90755.16;;;3.69;80.45
84785;BME280;75017;41.576;24.704;2024-03-08T00:59:16;90749.00;;;3.78;79.42
84785;BME280;75017;41.576;24.704;2024-03-08T01:01:42;90751.28;;;3.80;80.17
84785;BME280;75017;41.576;24.704;2024-03-08T01:04:09;90750.34;;;3.76;79.76
84785;BME280;75017;41.576;24.704;2024-03-08T01:06:35;90744.47;;;3.75;80.20
84785;BME280;75017;41.576;24.704;2024-03-08T01:09:01;90742.97;;;3.74;79.37
84785;BME280;75017;41.576;24.704;2024-03-08T01:11:26;90747.19;;;3.79;78.96
84785;BME280;75017;41.576;24.704;2024-03-08T01:13:53;90752.63;;;3.77;78.81
84785;BME280;75017;41.576;24.704;2024-03-08T01:16:19;90751.78;;;3.59;79.63
84785;BME280;75017;41.576;24.704;2024-03-08T01:18:46;90745.06;;;3.72;79.20
84785;BME280;75017;41.576;24.704;2024-03-08T01:21:12;90738.88;;;3.73;78.67
84785;BME280;75017;41.576;24.704;2024-03-08T01:23:38;90727.88;;;3.73;79.15
84785;BME280;75017;41.576;24.704;2024-03-08T01:26:03;90728.31;;;3.75;79.97
84785;BME280;75017;41.576;24.704;2024-03-08T01:28:30;90737.97;;;3.78;79.61
84785;BME280;75017;41.576;24.704;2024-03-08T01:30:56;90741.47;;;3.82;78.82
84785;BME280;75017;41.576;24.704;2024-03-08T01:33:25;90742.63;;;3.67;80.10
84785;BME280;75017;41.576;24.704;2024-03-08T01:35:52;90744.09;;;3.59;79.24
84785;BME280;75017;41.576;24.704;2024-03-08T01:38:18;90737.84;;;3.43;80.63
84785;BME280;75017;41.576;24.704;2024-03-08T01:40:43;90741.84;;;3.27;81.47
84785;BME280;75017;41.576;24.704;2024-03-08T01:43:35;90746.69;;;3.29;81.18
84785;BME280;75017;41.576;24.704;2024-03-08T01:46:01;90747.31;;;3.34;81.33
84785;BME280;75017;41.576;24.704;2024-03-08T01:48:30;90744.63;;;3.39;80.97
84785;BME280;75017;41.576;24.704;2024-03-08T01:50:57;90745.09;;;3.41;80.48
84785;BME280;75017;41.576;24.704;2024-03-08T01:53:24;90741.75;;;3.41;80.26
84785;BME280;75017;41.576;24.704;2024-03-08T01:55:53;90745.66;;;3.38;81.36
84785;BME280;75017;41.576;24.704;2024-03-08T01:58:19;90744.31;;;3.41;81.72
84785;BME280;75017;41.576;24.704;2024-03-08T02:00:48;90742.56;;;3.50;81.06
84785;BME280;75017;41.576;24.704;2024-03-08T02:03:17;90744.41;;;3.58;80.28
84785;BME280;75017;41.576;24.704;2024-03-08T02:05:42;90744.72;;;3.65;81.02
84785;BME280;75017;41.576;24.704;2024-03-08T02:08:09;90740.00;;;3.58;80.05
84785;BME280;75017;41.576;24.704;2024-03-08T02:10:40;90737.13;;;3.51;79.55
84785;BME280;75017;41.576;24.704;2024-03-08T02:13:07;90732.19;;;3.55;80.28
84785;BME280;75017;41.576;24.704;2024-03-08T02:16:08;90740.63;;;3.55;80.00
84785;BME280;75017;41.576;24.704;2024-03-08T02:18:34;90739.69;;;3.51;80.13
84785;BME280;75017;41.576;24.704;2024-03-08T02:21:06;90736.09;;;3.52;79.68
84785;BME280;75017;41.576;24.704;2024-03-08T02:23:32;90736.53;;;3.54;79.80
84785;BME280;75017;41.576;24.704;2024-03-08T02:25:59;90735.03;;;3.53;79.25
84785;BME280;75017;41.576;24.704;2024-03-08T02:28:24;90730.97;;;3.52;79.95
84785;BME280;75017;41.576;24.704;2024-03-08T02:30:51;90737.59;;;3.53;79.46
84785;BME280;75017;41.576;24.704;2024-03-08T02:33:20;90729.56;;;3.46;78.89
84785;BME280;75017;41.576;24.704;2024-03-08T02:35:45;90728.19;;;3.40;78.81
84785;BME280;75017;41.576;24.704;2024-03-08T02:38:15;90730.13;;;3.35;79.44
84785;BME280;75017;41.576;24.704;2024-03-08T02:40:44;90727.56;;;3.35;79.61
84785;BME280;75017;41.576;24.704;2024-03-08T02:43:11;90733.25;;;3.32;79.04
84785;BME280;75017;41.576;24.704;2024-03-08T02:45:37;90736.59;;;3.32;79.37
84785;BME280;75017;41.576;24.704;2024-03-08T02:48:03;90731.75;;;3.31;78.66
84785;BME280;75017;41.576;24.704;2024-03-08T02:50:28;90737.78;;;3.26;78.95
84785;BME280;75017;41.576;24.704;2024-03-08T02:52:54;90733.81;;;3.20;78.98
84785;BME280;75017;41.576;24.704;2024-03-08T02:55:19;90741.50;;;3.20;79.40
84785;BME280;75017;41.576;24.704;2024-03-08T02:57:46;90737.91;;;2.99;78.57
84785;BME280;75017;41.576;24.704;2024-03-08T03:00:15;90745.34;;;2.87;79.71
84785;BME280;75017;41.576;24.704;2024-03-08T03:02:41;90739.47;;;2.86;78.80
84785;BME280;75017;41.576;24.704;2024-03-08T03:05:08;90750.00;;;2.85;79.61
84785;BME280;75017;41.576;24.704;2024-03-08T03:07:35;90751.06;;;2.84;80.00
84785;BME280;75017;41.576;24.704;2024-03-08T03:10:01;90746.53;;;2.81;80.63
84785;BME280;75017;41.576;24.704;2024-03-08T03:12:28;90748.59;;;2.79;80.72
84785;BME280;75017;41.576;24.704;2024-03-08T03:14:53;90751.59;;;2.72;81.09
84785;BME280;75017;41.576;24.704;2024-03-08T03:17:19;90748.78;;;2.82;80.41
84785;BME280;75017;41.576;24.704;2024-03-08T03:19:45;90747.47;;;2.85;80.62
84785;BME280;75017;41.576;24.704;2024-03-08T03:22:12;90744.31;;;2.88;80.74
84785;BME280;75017;41.576;24.704;2024-03-08T03:24:38;90748.41;;;2.89;80.68
84785;BME280;75017;41.576;24.704;2024-03-08T03:27:04;90740.72;;;2.89;80.03
84785;BME280;75017;41.576;24.704;2024-03-08T03:29:44;90744.31;;;2.88;80.30
84785;BME280;75017;41.576;24.704;2024-03-08T03:32:15;90739.47;;;2.86;80.09
84785;BME280;75017;41.576;24.704;2024-03-08T03:34:41;90744.66;;;2.73;80.81
84785;BME280;75017;41.576;24.704;2024-03-08T03:37:09;90738.25;;;2.84;79.94
84785;BME280;75017;41.576;24.704;2024-03-08T03:39:38;90740.00;;;2.75;80.85
84785;BME280;75017;41.576;24.704;2024-03-08T03:42:19;90736.88;;;2.78;80.23
84785;BME280;75017;41.576;24.704;2024-03-08T03:44:46;90740.81;;;2.84;80.41
84785;BME280;75017;41.576;24.704;2024-03-08T03:47:12;90741.69;;;2.79;80.64
84785;BME280;75017;41.576;24.704;2024-03-08T03:49:38;90737.72;;;2.73;81.62
84785;BME280;75017;41.576;24.704;2024-03-08T03:52:04;90742.44;;;2.80;80.93
84785;BME280;75017;41.576;24.704;2024-03-08T03:54:30;90745.06;;;2.88;80.37
84785;BME280;75017;41.576;24.704;2024-03-08T03:56:56;90744.19;;;2.93;80.36
84785;BME280;75017;41.576;24.704;2024-03-08T03:59:21;90745.41;;;2.95;79.31
84785;BME280;75017;41.576;24.704;2024-03-08T04:01:47;90745.06;;;2.88;79.68
84785;BME280;75017;41.576;24.704;2024-03-08T04:04:14;90745.94;;;2.84;79.47
84785;BME280;75017;41.576;24.704;2024-03-08T04:06:39;90743.78;;;2.77;79.58
84785;BME280;75017;41.576;24.704;2024-03-08T04:09:05;90748.34;;;2.80;80.04
84785;BME280;75017;41.576;24.704;2024-03-08T04:11:30;90743.50;;;2.79;79.38
84785;BME280;75017;41.576;24.704;2024-03-08T04:13:56;90751.66;;;2.81;78.96
84785;BME280;75017;41.576;24.704;2024-03-08T04:16:21;90743.50;;;2.79;79.10
84785;BME280;75017;41.576;24.704;2024-03-08T04:18:47;90748.16;;;2.77;79.58
84785;BME280;75017;41.576;24.704;2024-03-08T04:21:13;90747.28;;;2.81;78.80
84785;BME280;75017;41.576;24.704;2024-03-08T04:23:38;90742.00;;;2.78;78.47
84785;BME280;75017;41.576;24.704;2024-03-08T04:26:04;90744.19;;;2.71;79.96
84785;BME280;75017;41.576;24.704;2024-03-08T04:28:31;90742.84;;;2.73;80.37
84785;BME280;75017;41.576;24.704;2024-03-08T04:30:57;90749.03;;;2.72;79.75
84785;BME280;75017;41.576;24.704;2024-03-08T04:33:22;90747.03;;;2.69;79.15
84785;BME280;75017;41.576;24.704;2024-03-08T04:35:49;90740.97;;;2.65;78.74
84785;BME280;75017;41.576;24.704;2024-03-08T04:38:14;90751.31;;;2.60;78.47
84785;BME280;75017;41.576;24.704;2024-03-08T04:40:41;90745.56;;;2.55;78.43
84785;BME280;75017;41.576;24.704;2024-03-08T04:43:07;90764.13;;;2.24;80.34
84785;BME280;75017;41.576;24.704;2024-03-08T04:45:34;90770.81;;;2.34;80.69
84785;BME280;75017;41.576;24.704;2024-03-08T04:47:59;90778.81;;;2.32;80.25
84785;BME280;75017;41.576;24.704;2024-03-08T04:50:25;90769.59;;;2.31;81.01
84785;BME280;75017;41.576;24.704;2024-03-08T04:52:54;90778.13;;;2.40;80.94
84785;BME280;75017;41.576;24.704;2024-03-08T04:55:20;90773.34;;;2.48;80.44
84785;BME280;75017;41.576;24.704;2024-03-08T04:57:47;90773.81;;;2.50;79.97
84785;BME280;75017;41.576;24.704;2024-03-08T05:00:13;90779.31;;;2.57;79.66
84785;BME280;75017;41.576;24.704;2024-03-08T05:02:40;90774.28;;;2.52;79.50
84785;BME280;75017;41.576;24.704;2024-03-08T05:05:06;90782.44;;;2.54;79.76
84785;BME280;75017;41.576;24.704;2024-03-08T05:07:32;90779.41;;;2.52;79.39
84785;BME280;75017;41.576;24.704;2024-03-08T05:09:59;90787.47;;;2.59;79.25
84785;BME280;75017;41.576;24.704;2024-03-08T05:12:25;90786.88;;;2.62;80.05
84785;BME280;75017;41.576;24.704;2024-03-08T05:14:50;90783.75;;;2.65;80.23
84785;BME280;75017;41.576;24.704;2024-03-08T05:17:16;90790.94;;;2.63;79.70
84785;BME280;75017;41.576;24.704;2024-03-08T05:19:44;90796.25;;;2.66;79.53
84785;BME280;75017;41.576;24.704;2024-03-08T05:22:10;90802.88;;;2.67;80.00
84785;BME280;75017;41.576;24.704;2024-03-08T05:24:35;90801.06;;;2.68;80.55
84785;BME280;75017;41.576;24.704;2024-03-08T05:27:00;90802.13;;;2.67;81.40
84785;BME280;75017;41.576;24.704;2024-03-08T05:29:27;90803.25;;;2.74;80.46
84785;BME280;75017;41.576;24.704;2024-03-08T05:31:54;90801.56;;;2.70;80.40
84785;BME280;75017;41.576;24.704;2024-03-08T05:34:20;90812.16;;;2.77;80.19
84785;BME280;75017;41.576;24.704;2024-03-08T05:36:47;90805.34;;;2.72;80.87
84785;BME280;75017;41.576;24.704;2024-03-08T05:39:15;90816.69;;;2.80;80.21
84785;BME280;75017;41.576;24.704;2024-03-08T05:41:41;90816.88;;;2.83;79.54
84785;BME280;75017;41.576;24.704;2024-03-08T05:44:08;90818.44;;;2.93;80.00
84785;BME280;75017;41.576;24.704;2024-03-08T05:46:34;90826.13;;;2.93;80.60
84785;BME280;75017;41.576;24.704;2024-03-08T05:49:01;90815.66;;;3.03;80.25
84785;BME280;75017;41.576;24.704;2024-03-08T05:51:36;90821.63;;;3.12;79.60
84785;BME280;75017;41.576;24.704;2024-03-08T05:54:03;90822.88;;;3.01;80.72
84785;BME280;75017;41.576;24.704;2024-03-08T05:56:31;90825.09;;;2.94;79.37
84785;BME280;75017;41.576;24.704;2024-03-08T05:58:57;90830.63;;;3.10;78.79
84785;BME280;75017;41.576;24.704;2024-03-08T06:01:26;90826.72;;;3.12;78.75
84785;BME280;75017;41.576;24.704;2024-03-08T06:03:56;90833.84;;;3.15;79.19
84785;BME280;75017;41.576;24.704;2024-03-08T06:06:25;90830.28;;;3.25;78.65
84785;BME280;75017;41.576;24.704;2024-03-08T06:08:51;90837.91;;;3.38;78.71
84785;BME280;75017;41.576;24.704;2024-03-08T06:11:18;90841.13;;;3.44;78.61
84785;BME280;75017;41.576;24.704;2024-03-08T06:13:47;90839.00;;;3.46;78.59
84785;BME280;75017;41.576;24.704;2024-03-08T06:16:12;90844.31;;;3.49;77.41
84785;BME280;75017;41.576;24.704;2024-03-08T06:18:38;90849.78;;;3.56;77.39
84785;BME280;75017;41.576;24.704;2024-03-08T06:21:07;90850.59;;;3.65;77.61
84785;BME280;75017;41.576;24.704;2024-03-08T06:23:34;90854.50;;;3.63;77.76
84785;BME280;75017;41.576;24.704;2024-03-08T06:26:07;90855.00;;;3.74;77.12
84785;BME280;75017;41.576;24.704;2024-03-08T06:28:32;90855.47;;;3.76;77.50
84785;BME280;75017;41.576;24.704;2024-03-08T06:31:01;90855.81;;;3.83;77.91
84785;BME280;75017;41.576;24.704;2024-03-08T06:33:28;90858.03;;;3.76;77.30
84785;BME280;75017;41.576;24.704;2024-03-08T06:35:54;90857.13;;;3.72;78.08
84785;BME280;75017;41.576;24.704;2024-03-08T06:38:25;90862.34;;;3.66;77.99
84785;BME280;75017;41.576;24.704;2024-03-08T06:40:51;90855.72;;;3.65;77.54
84785;BME280;75017;41.576;24.704;2024-03-08T06:43:17;90857.06;;;3.85;77.23
84785;BME280;75017;41.576;24.704;2024-03-08T06:45:46;90857.78;;;4.16;76.66
84785;BME280;75017;41.576;24.704;2024-03-08T06:48:16;90860.38;;;4.25;76.53
84785;BME280;75017;41.576;24.704;2024-03-08T06:50:43;90874.25;;;4.24;74.98
84785;BME280;75017;41.576;24.704;2024-03-08T06:53:08;90878.59;;;4.54;75.39
84785;BME280;75017;41.576;24.704;2024-03-08T06:55:34;90863.38;;;4.66;74.07
84785;BME280;75017;41.576;24.704;2024-03-08T06:58:00;90866.91;;;4.96;73.37
84785;BME280;75017;41.576;24.704;2024-03-08T07:00:26;90866.91;;;5.30;73.33
84785;BME280;75017;41.576;24.704;2024-03-08T07:02:54;90866.00;;;5.86;70.39
84785;BME280;75017;41.576;24.704;2024-03-08T07:05:19;90869.47;;;6.37;69.71
84785;BME280;75017;41.576;24.704;2024-03-08T07:07:45;90871.78;;;6.67;67.59
84785;BME280;75017;41.576;24.704;2024-03-08T07:10:14;90878.94;;;6.91;66.71
84785;BME280;75017;41.576;24.704;2024-03-08T07:12:41;90873.19;;;7.15;68.54
84785;BME280;75017;41.576;24.704;2024-03-08T07:15:08;90867.59;;;7.87;64.09
84785;BME280;75017;41.576;24.704;2024-03-08T07:17:39;90870.41;;;8.27;61.05
84785;BME280;75017;41.576;24.704;2024-03-08T07:20:05;90877.78;;;8.16;61.14
84785;BME280;75017;41.576;24.704;2024-03-08T07:22:33;90874.00;;;7.48;62.39
84785;BME280;75017;41.576;24.704;2024-03-08T07:24:58;90874.59;;;7.86;62.62
84785;BME280;75017;41.576;24.704;2024-03-08T07:27:33;90877.28;;;7.90;61.44
84785;BME280;75017;41.576;24.704;2024-03-08T07:30:02;90873.00;;;7.94;63.27
84785;BME280;75017;41.576;24.704;2024-03-08T07:32:28;90878.19;;;7.94;61.62
84785;BME280;75017;41.576;24.704;2024-03-08T07:34:57;90875.56;;;7.61;61.64
84785;BME280;75017;41.576;24.704;2024-03-08T07:37:23;90882.69;;;7.44;61.58
84785;BME280;75017;41.576;24.704;2024-03-08T07:39:49;90883.63;;;7.60;62.67
84785;BME280;75017;41.576;24.704;2024-03-08T07:42:15;90879.59;;;7.71;61.26
84785;BME280;75017;41.576;24.704;2024-03-08T07:44:42;90879.94;;;7.81;60.28
84785;BME280;75017;41.576;24.704;2024-03-08T07:47:07;90870.31;;;7.90;60.51
84785;BME280;75017;41.576;24.704;2024-03-08T07:49:35;90878.47;;;8.25;58.93
84785;BME280;75017;41.576;24.704;2024-03-08T07:52:03;90873.66;;;8.03;57.39
84785;BME280;75017;41.576;24.704;2024-03-08T07:54:30;90876.81;;;8.09;57.18
84785;BME280;75017;41.576;24.704;2024-03-08T07:56:55;90874.66;;;8.43;57.36
84785;BME280;75017;41.576;24.704;2024-03-08T07:59:21;90878.28;;;8.30;56.61
84785;BME280;75017;41.576;24.704;2024-03-08T08:01:46;90873.47;;;8.41;54.17
84785;BME280;75017;41.576;24.704;2024-03-08T08:04:12;90876.63;;;8.59;55.75
84785;BME280;75017;41.576;24.704;2024-03-08T08:06:40;90878.50;;;8.37;55.58
84785;BME280;75017;41.576;24.704;2024-03-08T08:09:09;90874.88;;;8.06;56.19
84785;BME280;75017;41.576;24.704;2024-03-08T08:11:41;90873.44;;;7.96;55.24
84785;BME280;75017;41.576;24.704;2024-03-08T08:14:11;90884.19;;;7.98;56.50
84785;BME280;75017;41.576;24.704;2024-03-08T08:16:36;90883.97;;;8.24;55.52
84785;BME280;75017;41.576;24.704;2024-03-08T08:19:03;90881.31;;;8.32;54.50
84785;BME280;75017;41.576;24.704;2024-03-08T08:21:35;90879.25;;;7.93;55.12
84785;BME280;75017;41.576;24.704;2024-03-08T08:24:04;90886.47;;;7.67;54.24
84785;BME280;75017;41.576;24.704;2024-03-08T08:26:30;90885.16;;;7.40;54.96
84785;BME280;75017;41.576;24.704;2024-03-08T08:28:56;90883.69;;;7.51;57.19
84785;BME280;75017;41.576;24.704;2024-03-08T08:31:21;90877.72;;;7.92;54.27
84785;BME280;75017;41.576;24.704;2024-03-08T08:33:47;90876.66;;;7.93;54.18
84785;BME280;75017;41.576;24.704;2024-03-08T08:36:14;90884.69;;;8.12;53.48
84785;BME280;75017;41.576;24.704;2024-03-08T08:38:40;90880.88;;;8.30;52.53
84785;BME280;75017;41.576;24.704;2024-03-08T08:41:09;90884.44;;;8.38;51.60
84785;BME280;75017;41.576;24.704;2024-03-08T08:43:36;90892.38;;;8.33;51.60
84785;BME280;75017;41.576;24.704;2024-03-08T08:46:01;90890.69;;;8.37;52.46
84785;BME280;75017;41.576;24.704;2024-03-08T08:48:27;90890.78;;;8.40;52.39
84785;BME280;75017;41.576;24.704;2024-03-08T08:50:54;90890.72;;;8.61;51.67
84785;BME280;75017;41.576;24.704;2024-03-08T08:53:20;90887.69;;;8.47;52.00
84785;BME280;75017;41.576;24.704;2024-03-08T08:55:47;90882.31;;;8.07;55.40
84785;BME280;75017;41.576;24.704;2024-03-08T08:58:12;90889.22;;;7.41;58.60
84785;BME280;75017;41.576;24.704;2024-03-08T09:00:39;90887.03;;;6.81;60.67
84785;BME280;75017;41.576;24.704;2024-03-08T09:03:05;90886.44;;;6.38;61.81
84785;BME280;75017;41.576;24.704;2024-03-08T09:05:32;90890.91;;;6.12;61.66
84785;BME280;75017;41.576;24.704;2024-03-08T09:07:59;90891.56;;;5.91;63.47
84785;BME280;75017;41.576;24.704;2024-03-08T09:10:25;90894.38;;;6.24;62.40
84785;BME280;75017;41.576;24.704;2024-03-08T09:12:50;90892.81;;;6.32;63.08
84785;BME280;75017;41.576;24.704;2024-03-08T09:15:16;90893.25;;;6.42;62.15
84785;BME280;75017;41.576;24.704;2024-03-08T09:17:46;90896.88;;;6.50;61.31
84785;BME280;75017;41.576;24.704;2024-03-08T09:20:12;90894.91;;;6.47;62.63
84785;BME280;75017;41.576;24.704;2024-03-08T09:22:40;90894.63;;;6.40;60.87
84785;BME280;75017;41.576;24.704;2024-03-08T09:25:09;90896.06;;;6.20;60.73
84785;BME280;75017;41.576;24.704;2024-03-08T09:27:35;90897.44;;;6.18;63.40
84785;BME280;75017;41.576;24.704;2024-03-08T09:30:00;90901.72;;;5.96;62.64
84785;BME280;75017;41.576;24.704;2024-03-08T09:32:26;90899.72;;;6.02;62.34
84785;BME280;75017;41.576;24.704;2024-03-08T09:34:52;90905.44;;;6.07;62.51
84785;BME280;75017;41.576;24.704;2024-03-08T09:37:17;90907.44;;;6.02;62.67
84785;BME280;75017;41.576;24.704;2024-03-08T09:39:44;90916.53;;;5.82;63.57
84785;BME280;75017;41.576;24.704;2024-03-08T09:42:10;90912.31;;;5.69;64.75
84785;BME280;75017;41.576;24.704;2024-03-08T09:44:43;90911.38;;;5.82;65.81
84785;BME280;75017;41.576;24.704;2024-03-08T09:47:10;90913.38;;;5.85;66.64
84785;BME280;75017;41.576;24.704;2024-03-08T09:49:39;90910.66;;;5.90;66.29
84785;BME280;75017;41.576;24.704;2024-03-08T09:52:07;90916.41;;;5.87;65.32
84785;BME280;75017;41.576;24.704;2024-03-08T09:54:32;90921.50;;;5.79;65.60
84785;BME280;75017;41.576;24.704;2024-03-08T09:56:59;90910.31;;;5.92;66.09
84785;BME280;75017;41.576;24.704;2024-03-08T09:59:24;90914.09;;;6.12;63.95
84785;BME280;75017;41.576;24.704;2024-03-08T10:01:52;90912.69;;;6.23;62.49
84785;BME280;75017;41.576;24.704;2024-03-08T10:04:22;90903.81;;;6.58;61.43
84785;BME280;75017;41.576;24.704;2024-03-08T10:06:47;90902.31;;;6.86;60.24
84785;BME280;75017;41.576;24.704;2024-03-08T10:09:14;90897.56;;;7.17;57.33
84785;BME280;75017;41.576;24.704;2024-03-08T10:11:40;90898.63;;;7.46;56.80
84785;BME280;75017;41.576;24.704;2024-03-08T10:14:08;90908.69;;;7.59;56.96
84785;BME280;75017;41.576;24.704;2024-03-08T10:16:33;90911.63;;;7.70;57.59
84785;BME280;75017;41.576;24.704;2024-03-08T10:19:00;90913.28;;;7.86;55.96
84785;BME280;75017;41.576;24.704;2024-03-08T10:21:26;90914.19;;;7.90;54.68
84785;BME280;75017;41.576;24.704;2024-03-08T10:23:52;90907.88;;;8.00;53.61
84785;BME280;75017;41.576;24.704;2024-03-08T10:26:19;90908.75;;;8.04;54.17
84785;BME280;75017;41.576;24.704;2024-03-08T10:28:51;90910.41;;;7.88;55.34
84785;BME280;75017;41.576;24.704;2024-03-08T10:31:18;90913.06;;;7.79;58.39
84785;BME280;75017;41.576;24.704;2024-03-08T10:33:45;90914.13;;;7.58;58.17
84785;BME280;75017;41.576;24.704;2024-03-08T10:36:11;90915.66;;;7.38;61.61
84785;BME280;75017;41.576;24.704;2024-03-08T10:38:39;90903.59;;;7.30;62.48
84785;BME280;75017;41.576;24.704;2024-03-08T10:41:11;90908.75;;;7.01;62.71
84785;BME280;75017;41.576;24.704;2024-03-08T10:46:30;90907.25;;;7.20;61.46
84785;BME280;75017;41.576;24.704;2024-03-08T10:48:58;90902.25;;;7.24;61.21
84785;BME280;75017;41.576;24.704;2024-03-08T10:51:28;90903.97;;;7.61;61.01
84785;BME280;75017;41.576;24.704;2024-03-08T10:53:57;90909.25;;;7.65;61.37
84785;BME280;75017;41.576;24.704;2024-03-08T10:56:22;90909.06;;;7.70;59.84
84785;BME280;75017;41.576;24.704;2024-03-08T10:58:48;90914.38;;;7.85;58.95
84785;BME280;75017;41.576;24.704;2024-03-08T11:01:14;90914.75;;;7.96;60.29
84785;BME280;75017;41.576;24.704;2024-03-08T11:06:16;90922.63;;;7.79;60.56
84785;BME280;75017;41.576;24.704;2024-03-08T11:08:42;90923.00;;;7.89;61.46
84785;BME280;75017;41.576;24.704;2024-03-08T11:11:32;90930.09;;;7.93;60.73
84785;BME280;75017;41.576;24.704;2024-03-08T11:14:01;90923.00;;;7.69;60.59
84785;BME280;75017;41.576;24.704;2024-03-08T11:21:36;90918.75;;;7.73;62.61
84785;BME280;75017;41.576;24.704;2024-03-08T11:24:14;90919.16;;;7.34;62.11
84785;BME280;75017;41.576;24.704;2024-03-08T11:26:41;90928.94;;;6.90;63.59
84785;BME280;75017;41.576;24.704;2024-03-08T11:32:09;90917.19;;;6.43;65.20
84785;BME280;75017;41.576;24.704;2024-03-08T11:34:36;90916.38;;;6.51;69.30
84785;BME280;75017;41.576;24.704;2024-03-08T11:37:06;90917.19;;;6.34;68.52
84785;BME280;75017;41.576;24.704;2024-03-08T11:39:35;90916.16;;;6.27;69.14
84785;BME280;75017;41.576;24.704;2024-03-08T11:42:02;90921.75;;;6.29;69.30
84785;BME280;75017;41.576;24.704;2024-03-08T11:44:28;90911.78;;;6.27;68.69
84785;BME280;75017;41.576;24.704;2024-03-08T11:46:54;90913.16;;;6.25;69.48
84785;BME280;75017;41.576;24.704;2024-03-08T11:49:19;90917.63;;;6.45;69.62
84785;BME280;75017;41.576;24.704;2024-03-08T11:51:46;90918.78;;;6.56;69.20
84785;BME280;75017;41.576;24.704;2024-03-08T11:54:12;90914.19;;;6.70;69.13
84785;BME280;75017;41.576;24.704;2024-03-08T11:56:38;90907.06;;;6.76;68.06
84785;BME280;75017;41.576;24.704;2024-03-08T11:59:04;90912.88;;;6.93;66.13
84785;BME280;75017;41.576;24.704;2024-03-08T12:01:30;90911.38;;;6.92;64.77
84785;BME280;75017;41.576;24.704;2024-03-08T12:03:57;90905.75;;;6.90;65.04
84785;BME280;75017;41.576;24.704;2024-03-08T12:06:25;90909.81;;;6.71;65.02
84785;BME280;75017;41.576;24.704;2024-03-08T12:08:51;90905.63;;;6.57;64.83
84785;BME280;75017;41.576;24.704;2024-03-08T12:11:22;90906.53;;;6.53;64.94
84785;BME280;75017;41.576;24.704;2024-03-08T12:13:49;90906.66;;;6.65;66.87
84785;BME280;75017;41.576;24.704;2024-03-08T12:16:17;90897.78;;;6.83;65.28
84785;BME280;75017;41.576;24.704;2024-03-08T12:18:53;90898.81;;;6.82;63.71
84785;BME280;75017;41.576;24.704;2024-03-08T12:21:21;90905.31;;;6.88;65.37
84785;BME280;75017;41.576;24.704;2024-03-08T12:24:08;90902.66;;;7.05;63.22
84785;BME280;75017;41.576;24.704;2024-03-08T12:26:35;90892.41;;;7.17;61.93
84785;BME280;75017;41.576;24.704;2024-03-08T12:29:26;90896.94;;;7.20;63.83
84785;BME280;75017;41.576;24.704;2024-03-08T12:31:59;90895.09;;;7.29;61.86
84785;BME280;75017;41.576;24.704;2024-03-08T12:34:30;90901.00;;;7.30;61.25
84785;BME280;75017;41.576;24.704;2024-03-08T12:36:58;90896.19;;;7.20;62.17
84785;BME280;75017;41.576;24.704;2024-03-08T12:39:23;90893.69;;;7.32;61.65
84785;BME280;75017;41.576;24.704;2024-03-08T12:41:52;90892.69;;;7.45;60.76
84785;BME280;75017;41.576;24.704;2024-03-08T12:44:19;90892.69;;;7.45;62.40
84785;BME280;75017;41.576;24.704;2024-03-08T12:46:47;90886.75;;;7.86;61.15
84785;BME280;75017;41.576;24.704;2024-03-08T12:49:13;90893.56;;;8.35;61.15
84785;BME280;75017;41.576;24.704;2024-03-08T12:51:43;90888.91;;;8.98;60.60
84785;BME280;75017;41.576;24.704;2024-03-08T12:54:09;90875.59;;;9.36;56.65
84785;BME280;75017;41.576;24.704;2024-03-08T12:56:35;90886.00;;;8.87;57.10
84785;BME280;75017;41.576;24.704;2024-03-08T12:59:03;90888.44;;;8.47;57.99
84785;BME280;75017;41.576;24.704;2024-03-08T13:01:30;90880.84;;;8.18;57.56
84785;BME280;75017;41.576;24.704;2024-03-08T13:04:16;90883.56;;;8.01;58.07
84785;BME280;75017;41.576;24.704;2024-03-08T13:06:41;90886.38;;;7.55;58.88
84785;BME280;75017;41.576;24.704;2024-03-08T13:09:07;90890.28;;;7.61;58.77
84785;BME280;75017;41.576;24.704;2024-03-08T13:11:33;90880.09;;;7.44;58.34
84785;BME280;75017;41.576;24.704;2024-03-08T13:14:04;90884.38;;;7.19;58.67